Terminal Aerodrome Forecast
Issued by NWS

Home | Current Version | Previous Version | Text Only | Print | Product List | Glossary On
Versions: 1 2 3 4 5 6 7 8 9 10 11 12
360
FTUS42 TJSJ 221734
TAFJPS
TAF
TJPS 221734Z 2218/2318 14012KT P6SM SCT030 SCT060
     FM222330 09008KT P6SM FEW060
     FM230300 07004KT P6SM FEW030
     FM231400 13012KT P6SM SCT030
      AMD NOT SKED TIL 230300=

USA.gov is the U.S. government's official web portal to all federal, state and local government web resources and services.